West Wendover, NV

6:05 PM MST on January 22, 2017 (GMT -0700)
Wendover | | Change Station
Active Advisory: Winter Weather Advisory Active Notice: Public Information Statement

Elev 4236 ft 40.72 °N, 114.03 °W | Updated 10 minutes ago

Overcast
Overcast
30 °F
Feels Like 30 °F
N
0
Wind Variable Wind from North

Today
High -- | Low -- °F
--% Chance of Precip.
Yesterday
High -- | Low -- °F
Precip. -- in
Pressure 29.74 in
Visibility 1.2 miles
Clouds Overcast 800 ft
Dew Point 28 °F
Humidity 93%
Rainfall 0.00 in
Snow Depth Not available.
7:54 AM 5:42 PM
Waning Crescent, 22% visible
METAR KENV 230055Z AUTO 00000KT 1 1/4SM OVC008 M01/M02 A2974 RMK AO1
Pressure 29.74 in
Visibility 1.2 miles
Clouds Overcast 800 ft
Dew Point 28 °F
Humidity 93%
Rainfall 0.00 in
Snow Depth Not available.
7:54 AM 5:42 PM
Waning Crescent, 22% visible
METAR KENV 230055Z AUTO 00000KT 1 1/4SM OVC008 M01/M02 A2974 RMK AO1

Get Your Daily Forecast Email!

Thanks for signing up!

Be on the lookout for a verification email in your inbox.

You'll start receiving the daily forecast at 8 AM.

×

10-Day Weather Forecast

Almanac

Astronomy

Jan. 22, 2017 Rise Set
Actual Time
Civil Twilight
Nautical Twilight
Astronomical Twilight
Moon
Length of Visible Light
Length of Day
Tomorrow will be .
, % of the Moon is Illuminated

Today's Extremes

State Highs State Lows

Community

WunderPhotos

Upload Photos

1,962,540 photos uploaded!

WunderBlog® & News

Nearby

Air Quality

  Air Quality AQ Index Pollutant
Not available.

Snow Depth

Station Depth Elevation

Earthquake Activity

City Distance Mag. Time & Date
Minimum magnitude displayed is 2.5.

Coastal Water Temperatures

Place Temperature

Stations

Nearby Weather Stations

Station Location Temp. Windchill Dew Point Humidity Wind Precip. Elev Updated Type
                   

Watches & Warnings

Winter Weather Advisory
Issued: 2:15 PM PST Jan. 22, 2017 – National Weather Service

... Winter Weather Advisory remains in effect until 10 am PST
Monday...

* snow accumulations... 2-5 inches.

* Peak winds... south 15 to 25 mph gusting to 35 mph.

* Impacts... visibilities may drop to 1/4 mile or less due to
blowing snow. Drifting snow across roadways will make driving
treacherous at Highway speeds. If travel is necessary, be prepared
for sudden changes in visibility, especially on (north-
south/east- west) roads.

* For a detailed view of the hazard area, visit
http://www.Wrh.NOAA.Gov/map.

Precautionary/preparedness actions...

A Winter Weather Advisory means that travel difficulties are
expected due to wintry conditions. Be prepared for slippery roads
and limited visibilities, and use caution while driving. For the
latest Road conditions call 511 or visit http://www.Nvroads.Com.



Lw